Gulf Venture — WDI8681 — position and weather

sailwx.info

Track history (hours):
 
Tides and Currents Weather Stations Pressure Air Temp Water Temp Dewpoint Dewpoint Depression Visibility Wind Speed Wind Dir Waves Ship Positions

Gulf Venture

Owner: Harley Marine Services, Inc, Seattle, WA. More information available from US FCC via Universal Licensing System and Coast Guard Vessel Documentation Center.

Last reported at 2018-Jun-20 19:00 UTC. Time now 2018-Jun-20 19:07 UTC.
Position N 38°56' W 075°06'.

Length 147 m; draft 6 m.

Type: Tug. MMSI: 367741080.

Date/timePositionNaut miles runAvg speedWind from/ knotsBaromVisibWave heightAir tempDewpointWater temp
2018-Jun-20 19:00N 38°56' W 075°06'4 8.5
2018-Jun-20 18:30N 38°60' W 075°08'4 8.1
2018-Jun-20 18:01N 39°04' W 075°10'4 8.0
2018-Jun-20 17:31N 39°07' W 075°13'4 6.9
2018-Jun-20 16:59N 39°10' W 075°16'3 7.3
2018-Jun-20 16:30N 39°13' W 075°18'4 7.3
2018-Jun-20 16:00N 39°16' W 075°21'4 8.3
2018-Jun-20 15:30N 39°19' W 075°24'4 8.5
2018-Jun-20 15:01N 39°22' W 075°28'5 8.9
2018-Jun-20 14:30N 39°26' W 075°32'4 8.5
2018-Jun-20 14:00N 39°29' W 075°34'5 9.9
2018-Jun-20 13:30N 39°34' W 075°33'510.2
2018-Jun-20 13:00N 39°39' W 075°33'611.8
2018-Jun-20 12:30N 39°45' W 075°29'510.8
2018-Jun-20 12:00N 39°49' W 075°24'5 9.9
2018-Jun-20 11:31N 39°51' W 075°19'2 4.5
2018-Jun-20 11:00N 39°51' W 075°16'0 0.0
2018-Jun-20 10:26N 39°51' W 075°16'0 0.0
2018-Jun-20 10:00N 39°51' W 075°16'0 0.0
2018-Jun-20 09:29N 39°51' W 075°16'0 0.0
2018-Jun-20 08:59N 39°51' W 075°16'0 0.0
2018-Jun-20 08:29N 39°51' W 075°16'0 0.0
2018-Jun-20 07:59N 39°51' W 075°16'0 0.0
2018-Jun-20 07:29N 39°51' W 075°16'0 0.0
2018-Jun-20 06:59N 39°51' W 075°16'0 0.0
2018-Jun-20 06:29N 39°51' W 075°16'0 0.0
2018-Jun-20 05:59N 39°51' W 075°16'0 0.0
2018-Jun-20 05:29N 39°51' W 075°16'0 0.0
2018-Jun-20 04:59N 39°51' W 075°16'0 0.0
2018-Jun-20 04:29N 39°51' W 075°16'0 0.0
2018-Jun-20 03:59N 39°51' W 075°16'0 0.0
2018-Jun-20 03:29N 39°51' W 075°16'0 0.0
2018-Jun-20 02:56N 39°51' W 075°16'0 0.0
2018-Jun-20 02:29N 39°51' W 075°16'0 0.0
2018-Jun-20 01:59N 39°51' W 075°16'0 0.0
2018-Jun-20 01:29N 39°51' W 075°16'0 0.0
2018-Jun-20 00:59N 39°51' W 075°16'0 0.0
2018-Jun-20 00:29N 39°51' W 075°16'0 0.0
2018-Jun-19 23:59N 39°51' W 075°16'0 0.0
2018-Jun-19 23:29N 39°51' W 075°16'0 0.0
2018-Jun-19 22:59N 39°51' W 075°16'0 0.0
2018-Jun-19 22:29N 39°51' W 075°16'0 0.0
2018-Jun-19 21:59N 39°51' W 075°16'0 0.0
2018-Jun-19 21:29N 39°51' W 075°16'0 0.0
2018-Jun-19 20:59N 39°51' W 075°16'0 0.0
2018-Jun-19 20:29N 39°51' W 075°16'0 0.0
2018-Jun-19 19:59N 39°51' W 075°16'0 0.0
2018-Jun-19 19:29N 39°51' W 075°16'0 0.0
2018-Jun-19 18:59N 39°51' W 075°16'0 0.0
2018-Jun-19 18:29N 39°51' W 075°16'0 0.0
2018-Jun-19 17:59N 39°51' W 075°16'0 0.0
2018-Jun-19 17:29N 39°51' W 075°16'0 0.0
2018-Jun-19 16:59N 39°51' W 075°16'0 0.0
2018-Jun-19 16:29N 39°51' W 075°16'0 0.0
2018-Jun-19 15:59N 39°51' W 075°16'0 0.0
2018-Jun-19 15:29N 39°51' W 075°16'0 0.0
2018-Jun-19 14:56N 39°51' W 075°16'0 0.0
2018-Jun-19 14:29N 39°51' W 075°16'0 0.0
2018-Jun-19 13:56N 39°51' W 075°16'0 0.0
2018-Jun-19 13:29N 39°51' W 075°16'0 0.0
2018-Jun-19 12:59N 39°51' W 075°16'0 0.0
2018-Jun-19 12:29N 39°51' W 075°16'0 0.0
2018-Jun-19 11:59N 39°51' W 075°16'0 0.0
2018-Jun-19 11:29N 39°51' W 075°16'0 0.0
2018-Jun-19 10:59N 39°51' W 075°16'0 0.0
2018-Jun-19 10:29N 39°51' W 075°16'0 0.0
2018-Jun-19 09:59N 39°51' W 075°16'0 0.0
2018-Jun-19 09:29N 39°51' W 075°16'0 0.0
2018-Jun-19 08:59N 39°51' W 075°16'0 0.0
2018-Jun-19 08:30N 39°51' W 075°16'0 0.7
2018-Jun-19 08:00N 39°51' W 075°16'2 3.5
2018-Jun-19 07:30N 39°51' W 075°18'4 8.9
2018-Jun-19 07:00N 39°49' W 075°23'5 8.7
2018-Jun-19 06:27N 39°46' W 075°28'4 8.2
2018-Jun-19 06:00N 39°43' W 075°30'0 0.2
2018-Jun-19 05:05N 39°43' W 075°30'0 0.5
2018-Jun-19 04:38N 39°43' W 075°30'0 0.2
2018-Jun-19 04:20N 39°43' W 075°30'0 0.0
2018-Jun-19 03:59N 39°43' W 075°30'0 0.0
2018-Jun-19 03:29N 39°43' W 075°30'0 0.0
2018-Jun-19 02:50N 39°43' W 075°30'0 0.0
2018-Jun-19 02:26N 39°43' W 075°30'0 0.1
2018-Jun-18 23:35N 39°43' W 075°30'0 0.2
2018-Jun-18 23:05N 39°43' W 075°30'0 0.1
2018-Jun-18 22:47N 39°43' W 075°30'0 0.0
2018-Jun-18 20:59N 39°43' W 075°30'0 0.0
2018-Jun-18 20:29N 39°43' W 075°30'0 0.0
2018-Jun-18 19:56N 39°43' W 075°30'0 0.0
2018-Jun-18 19:29N 39°43' W 075°30'0 0.0
2018-Jun-18 18:44N 39°43' W 075°30'0 0.0
2018-Jun-18 16:53N 39°43' W 075°30'0 0.3
2018-Jun-18 16:05N 39°43' W 075°30'0 0.1
2018-Jun-18 15:56N 39°43' W 075°30'0 0.0
2018-Jun-18 15:14N 39°43' W 075°30'0 0.0
2018-Jun-18 14:53N 39°43' W 075°30'0 0.0
2018-Jun-18 14:23N 39°43' W 075°30'0 0.0
2018-Jun-18 13:59N 39°43' W 075°30'0 0.0
2018-Jun-18 13:23N 39°43' W 075°30'0 0.0
2018-Jun-18 12:59N 39°43' W 075°30'0 0.0
2018-Jun-18 12:29N 39°43' W 075°30'0 0.0
2018-Jun-18 11:44N 39°43' W 075°30'0 0.0
2018-Jun-18 10:59N 39°43' W 075°30'0 0.3
2018-Jun-18 10:14N 39°43' W 075°30'0 0.0
2018-Jun-18 08:56N 39°43' W 075°30'0 0.0
2018-Jun-18 07:47N 39°43' W 075°30'0 0.1
2018-Jun-18 02:44N 39°43' W 075°30'0 0.0
2018-Jun-18 02:20N 39°43' W 075°30'0 0.0
2018-Jun-18 01:47N 39°43' W 075°30'0 0.0
2018-Jun-18 01:23N 39°43' W 075°30'0 0.0
2018-Jun-18 00:11N 39°43' W 075°30'0 0.1
2018-Jun-17 23:08N 39°43' W 075°30'0 0.1
2018-Jun-17 22:59N 39°43' W 075°30'0 0.0
2018-Jun-17 16:35N 39°43' W 075°30'0 0.4
2018-Jun-17 16:20N 39°43' W 075°30'0 0.4
2018-Jun-17 15:56N 39°43' W 075°30'0 0.1
2018-Jun-17 15:23N 39°43' W 075°30'0 0.0
2018-Jun-17 14:56N 39°43' W 075°30'0 0.0
2018-Jun-17 14:20N 39°43' W 075°30'0 0.0
2018-Jun-17 13:46N 39°43' W 075°30'0 0.0
2018-Jun-17 13:29N 39°43' W 075°30'2 3.9
2018-Jun-17 13:00N 39°41' W 075°31'4 8.9
2018-Jun-17 12:30N 39°38' W 075°35'5 9.1
2018-Jun-17 12:00N 39°33' W 075°32'4 8.8
2018-Jun-17 11:30N 39°29' W 075°34'4 8.5
2018-Jun-17 11:00N 39°25' W 075°31'65 5.9
2018-Jun-17 00:01N 39°32' W 074°08'010.7
2018-Jun-17 00:00N 39°33' W 074°08'510.4
2018-Jun-16 23:30N 39°37' W 074°05'510.2
2018-Jun-16 23:00N 39°41' W 074°01'510.0
2018-Jun-16 22:30N 39°46' W 073°58'510.0
2018-Jun-16 21:58N 39°51' W 073°57'5 9.6
2018-Jun-16 21:29N 39°56' W 073°56'5 9.6
2018-Jun-16 21:00N 40°00' W 073°56'36 7.8
2018-Jun-16 16:19N 40°36' W 074°02'310.4
2018-Jun-16 16:00N 40°39' W 074°05'4 0.8
2018-Jun-16 10:35N 40°39' W 074°10'1 9.5
2018-Jun-16 10:28N 40°39' W 074°09'4 9.5
2018-Jun-16 10:01N 40°38' W 074°03'2 0.3
2018-Jun-16 01:09N 40°36' W 074°01'0 0.1
2018-Jun-16 01:01N 40°36' W 074°02'2 3.8
2018-Jun-16 00:29N 40°37' W 074°03'5 9.8
2018-Jun-16 00:00N 40°42' W 074°02'  
2018-Jun-13 01:23N 40°47' W 073°60'512.8
2018-Jun-13 01:00N 40°42' W 074°02'5 9.4
2018-Jun-13 00:27N 40°39' W 074°07'2 4.2
2018-Jun-12 23:54N 40°38' W 074°09'0 0.0
2018-Jun-12 23:25N 40°38' W 074°09'0 0.0
2018-Jun-12 22:40N 40°38' W 074°09'0 0.0
2018-Jun-12 22:13N 40°38' W 074°09'0 0.0
2018-Jun-12 21:55N 40°38' W 074°09'0 0.0
2018-Jun-12 21:13N 40°38' W 074°09'0 0.0
2018-Jun-12 18:34N 40°38' W 074°09'0 0.0
2018-Jun-12 18:07N 40°38' W 074°10'0 0.0
2018-Jun-12 17:37N 40°38' W 074°09'0 0.0
2018-Jun-12 17:01N 40°38' W 074°09'0 0.0
2018-Jun-12 16:43N 40°38' W 074°10'0 0.0
2018-Jun-12 16:19N 40°38' W 074°09'0 0.0
2018-Jun-12 14:25N 40°38' W 074°09'0 0.2
2018-Jun-12 12:06N 40°38' W 074°09'0 4.7
2018-Jun-12 12:01N 40°39' W 074°08'142 6.5
2018-Jun-11 14:08N 41°42' W 071°19'1 8.1
2018-Jun-11 14:00N 41°42' W 071°20'  
Track history (hours):
 
Tides and Currents Weather Stations Pressure Air Temp Water Temp Dewpoint Dewpoint Depression Visibility Wind Speed Wind Dir Waves Ship Positions

Gulf Venture

Owner: Harley Marine Services, Inc, Seattle, WA. More information available from US FCC via Universal Licensing System and Coast Guard Vessel Documentation Center.

Last reported at 2018-Jun-20 19:00 UTC. Time now 2018-Jun-20 19:07 UTC.
Position N 38°56' W 075°06'.

Length 147 m; draft 6 m.

Type: Tug. MMSI: 367741080.

Date/timePositionNaut miles runAvg speedWind from/ knotsBaromVisibWave heightAir tempDewpointWater temp
2018-Jun-20 19:00N 38°56' W 075°06'4 8.5
2018-Jun-20 18:30N 38°60' W 075°08'4 8.1
2018-Jun-20 18:01N 39°04' W 075°10'4 8.0
2018-Jun-20 17:31N 39°07' W 075°13'4 6.9
2018-Jun-20 16:59N 39°10' W 075°16'3 7.3
2018-Jun-20 16:30N 39°13' W 075°18'4 7.3
2018-Jun-20 16:00N 39°16' W 075°21'4 8.3
2018-Jun-20 15:30N 39°19' W 075°24'4 8.5
2018-Jun-20 15:01N 39°22' W 075°28'5 8.9
2018-Jun-20 14:30N 39°26' W 075°32'4 8.5
2018-Jun-20 14:00N 39°29' W 075°34'5 9.9
2018-Jun-20 13:30N 39°34' W 075°33'510.2
2018-Jun-20 13:00N 39°39' W 075°33'611.8
2018-Jun-20 12:30N 39°45' W 075°29'510.8
2018-Jun-20 12:00N 39°49' W 075°24'5 9.9
2018-Jun-20 11:31N 39°51' W 075°19'2 4.5
2018-Jun-20 11:00N 39°51' W 075°16'0 0.0
2018-Jun-20 10:26N 39°51' W 075°16'0 0.0
2018-Jun-20 10:00N 39°51' W 075°16'0 0.0
2018-Jun-20 09:29N 39°51' W 075°16'0 0.0
2018-Jun-20 08:59N 39°51' W 075°16'0 0.0
2018-Jun-20 08:29N 39°51' W 075°16'0 0.0
2018-Jun-20 07:59N 39°51' W 075°16'0 0.0
2018-Jun-20 07:29N 39°51' W 075°16'0 0.0
2018-Jun-20 06:59N 39°51' W 075°16'0 0.0
2018-Jun-20 06:29N 39°51' W 075°16'0 0.0
2018-Jun-20 05:59N 39°51' W 075°16'0 0.0
2018-Jun-20 05:29N 39°51' W 075°16'0 0.0
2018-Jun-20 04:59N 39°51' W 075°16'0 0.0
2018-Jun-20 04:29N 39°51' W 075°16'0 0.0
2018-Jun-20 03:59N 39°51' W 075°16'0 0.0
2018-Jun-20 03:29N 39°51' W 075°16'0 0.0
2018-Jun-20 02:56N 39°51' W 075°16'0 0.0
2018-Jun-20 02:29N 39°51' W 075°16'0 0.0
2018-Jun-20 01:59N 39°51' W 075°16'0 0.0
2018-Jun-20 01:29N 39°51' W 075°16'0 0.0
2018-Jun-20 00:59N 39°51' W 075°16'0 0.0
2018-Jun-20 00:29N 39°51' W 075°16'0 0.0
2018-Jun-19 23:59N 39°51' W 075°16'0 0.0
2018-Jun-19 23:29N 39°51' W 075°16'0 0.0
2018-Jun-19 22:59N 39°51' W 075°16'0 0.0
2018-Jun-19 22:29N 39°51' W 075°16'0 0.0
2018-Jun-19 21:59N 39°51' W 075°16'0 0.0
2018-Jun-19 21:29N 39°51' W 075°16'0 0.0
2018-Jun-19 20:59N 39°51' W 075°16'0 0.0
2018-Jun-19 20:29N 39°51' W 075°16'0 0.0
2018-Jun-19 19:59N 39°51' W 075°16'0 0.0
2018-Jun-19 19:29N 39°51' W 075°16'0 0.0
2018-Jun-19 18:59N 39°51' W 075°16'0 0.0
2018-Jun-19 18:29N 39°51' W 075°16'0 0.0
2018-Jun-19 17:59N 39°51' W 075°16'0 0.0
2018-Jun-19 17:29N 39°51' W 075°16'0 0.0
2018-Jun-19 16:59N 39°51' W 075°16'0 0.0
2018-Jun-19 16:29N 39°51' W 075°16'0 0.0
2018-Jun-19 15:59N 39°51' W 075°16'0 0.0
2018-Jun-19 15:29N 39°51' W 075°16'0 0.0
2018-Jun-19 14:56N 39°51' W 075°16'0 0.0
2018-Jun-19 14:29N 39°51' W 075°16'0 0.0
2018-Jun-19 13:56N 39°51' W 075°16'0 0.0
2018-Jun-19 13:29N 39°51' W 075°16'0 0.0
2018-Jun-19 12:59N 39°51' W 075°16'0 0.0
2018-Jun-19 12:29N 39°51' W 075°16'0 0.0
2018-Jun-19 11:59N 39°51' W 075°16'0 0.0
2018-Jun-19 11:29N 39°51' W 075°16'0 0.0
2018-Jun-19 10:59N 39°51' W 075°16'0 0.0
2018-Jun-19 10:29N 39°51' W 075°16'0 0.0
2018-Jun-19 09:59N 39°51' W 075°16'0 0.0
2018-Jun-19 09:29N 39°51' W 075°16'0 0.0
2018-Jun-19 08:59N 39°51' W 075°16'0 0.0
2018-Jun-19 08:30N 39°51' W 075°16'0 0.7
2018-Jun-19 08:00N 39°51' W 075°16'2 3.5
2018-Jun-19 07:30N 39°51' W 075°18'4 8.9
2018-Jun-19 07:00N 39°49' W 075°23'5 8.7
2018-Jun-19 06:27N 39°46' W 075°28'4 8.2
2018-Jun-19 06:00N 39°43' W 075°30'0 0.2
2018-Jun-19 05:05N 39°43' W 075°30'0 0.5
2018-Jun-19 04:38N 39°43' W 075°30'0 0.2
2018-Jun-19 04:20N 39°43' W 075°30'0 0.0
2018-Jun-19 03:59N 39°43' W 075°30'0 0.0
2018-Jun-19 03:29N 39°43' W 075°30'0 0.0
2018-Jun-19 02:50N 39°43' W 075°30'0 0.0
2018-Jun-19 02:26N 39°43' W 075°30'0 0.1
2018-Jun-18 23:35N 39°43' W 075°30'0 0.2
2018-Jun-18 23:05N 39°43' W 075°30'0 0.1
2018-Jun-18 22:47N 39°43' W 075°30'0 0.0
2018-Jun-18 20:59N 39°43' W 075°30'0 0.0
2018-Jun-18 20:29N 39°43' W 075°30'0 0.0
2018-Jun-18 19:56N 39°43' W 075°30'0 0.0
2018-Jun-18 19:29N 39°43' W 075°30'0 0.0
2018-Jun-18 18:44N 39°43' W 075°30'0 0.0
2018-Jun-18 16:53N 39°43' W 075°30'0 0.3
2018-Jun-18 16:05N 39°43' W 075°30'0 0.1
2018-Jun-18 15:56N 39°43' W 075°30'0 0.0
2018-Jun-18 15:14N 39°43' W 075°30'0 0.0
2018-Jun-18 14:53N 39°43' W 075°30'0 0.0
2018-Jun-18 14:23N 39°43' W 075°30'0 0.0
2018-Jun-18 13:59N 39°43' W 075°30'0 0.0
2018-Jun-18 13:23N 39°43' W 075°30'0 0.0
2018-Jun-18 12:59N 39°43' W 075°30'0 0.0
2018-Jun-18 12:29N 39°43' W 075°30'0 0.0
2018-Jun-18 11:44N 39°43' W 075°30'0 0.0
2018-Jun-18 10:59N 39°43' W 075°30'0 0.3
2018-Jun-18 10:14N 39°43' W 075°30'0 0.0
2018-Jun-18 08:56N 39°43' W 075°30'0 0.0
2018-Jun-18 07:47N 39°43' W 075°30'0 0.1
2018-Jun-18 02:44N 39°43' W 075°30'0 0.0
2018-Jun-18 02:20N 39°43' W 075°30'0 0.0
2018-Jun-18 01:47N 39°43' W 075°30'0 0.0
2018-Jun-18 01:23N 39°43' W 075°30'0 0.0
2018-Jun-18 00:11N 39°43' W 075°30'0 0.1
2018-Jun-17 23:08N 39°43' W 075°30'0 0.1
2018-Jun-17 22:59N 39°43' W 075°30'0 0.0
2018-Jun-17 16:35N 39°43' W 075°30'0 0.4
2018-Jun-17 16:20N 39°43' W 075°30'0 0.4
2018-Jun-17 15:56N 39°43' W 075°30'0 0.1
2018-Jun-17 15:23N 39°43' W 075°30'0 0.0
2018-Jun-17 14:56N 39°43' W 075°30'0 0.0
2018-Jun-17 14:20N 39°43' W 075°30'0 0.0
2018-Jun-17 13:46N 39°43' W 075°30'0 0.0
2018-Jun-17 13:29N 39°43' W 075°30'2 3.9
2018-Jun-17 13:00N 39°41' W 075°31'4 8.9
2018-Jun-17 12:30N 39°38' W 075°35'5 9.1
2018-Jun-17 12:00N 39°33' W 075°32'4 8.8
2018-Jun-17 11:30N 39°29' W 075°34'4 8.5
2018-Jun-17 11:00N 39°25' W 075°31'65 5.9
2018-Jun-17 00:01N 39°32' W 074°08'010.7
2018-Jun-17 00:00N 39°33' W 074°08'510.4
2018-Jun-16 23:30N 39°37' W 074°05'510.2
2018-Jun-16 23:00N 39°41' W 074°01'510.0
2018-Jun-16 22:30N 39°46' W 073°58'510.0
2018-Jun-16 21:58N 39°51' W 073°57'5 9.6
2018-Jun-16 21:29N 39°56' W 073°56'5 9.6
2018-Jun-16 21:00N 40°00' W 073°56'36 7.8
2018-Jun-16 16:19N 40°36' W 074°02'310.4
2018-Jun-16 16:00N 40°39' W 074°05'4 0.8
2018-Jun-16 10:35N 40°39' W 074°10'1 9.5
2018-Jun-16 10:28N 40°39' W 074°09'4 9.5
2018-Jun-16 10:01N 40°38' W 074°03'2 0.3
2018-Jun-16 01:09N 40°36' W 074°01'0 0.1
2018-Jun-16 01:01N 40°36' W 074°02'2 3.8
2018-Jun-16 00:29N 40°37' W 074°03'5 9.8
2018-Jun-16 00:00N 40°42' W 074°02'  
2018-Jun-13 01:23N 40°47' W 073°60'512.8
2018-Jun-13 01:00N 40°42' W 074°02'5 9.4
2018-Jun-13 00:27N 40°39' W 074°07'2 4.2
2018-Jun-12 23:54N 40°38' W 074°09'0 0.0
2018-Jun-12 23:25N 40°38' W 074°09'0 0.0
2018-Jun-12 22:40N 40°38' W 074°09'0 0.0
2018-Jun-12 22:13N 40°38' W 074°09'0 0.0
2018-Jun-12 21:55N 40°38' W 074°09'0 0.0
2018-Jun-12 21:13N 40°38' W 074°09'0 0.0
2018-Jun-12 18:34N 40°38' W 074°09'0 0.0
2018-Jun-12 18:07N 40°38' W 074°10'0 0.0
2018-Jun-12 17:37N 40°38' W 074°09'0 0.0
2018-Jun-12 17:01N 40°38' W 074°09'0 0.0
2018-Jun-12 16:43N 40°38' W 074°10'0 0.0
2018-Jun-12 16:19N 40°38' W 074°09'0 0.0
2018-Jun-12 14:25N 40°38' W 074°09'0 0.2
2018-Jun-12 12:06N 40°38' W 074°09'0 4.7
2018-Jun-12 12:01N 40°39' W 074°08'142 6.5
2018-Jun-11 14:08N 41°42' W 071°19'1 8.1
2018-Jun-11 14:00N 41°42' W 071°20'  

Dump ship's entire track history